createdAt,value
2023-01-10T00:02:25.026Z,97846.19
2023-01-10T00:04:54.413Z,97853.92
2023-01-10T00:07:23.157Z,97851.18
2023-01-10T00:09:51.912Z,97843.35
2023-01-10T00:12:39.520Z,97843.99
2023-01-10T00:15:09.119Z,97841.61
2023-01-10T00:17:37.790Z,97850.31
2023-01-10T00:20:07.399Z,97847.20
2023-01-10T00:22:36.461Z,97855.78
2023-01-10T00:25:06.204Z,97853.86
2023-01-10T00:27:35.997Z,97857.77
2023-01-10T00:30:14.341Z,97862.80
2023-01-10T00:32:45.123Z,97863.17
2023-01-10T00:35:14.046Z,97862.56
2023-01-10T00:37:42.757Z,97861.13
2023-01-10T00:40:13.095Z,97869.64
2023-01-10T00:43:00.594Z,97870.12
2023-01-10T00:45:29.749Z,97868.36
2023-01-10T00:47:58.501Z,97868.80
2023-01-10T00:50:27.439Z,97871.29
2023-01-10T00:52:56.518Z,97872.64
2023-01-10T00:55:26.774Z,97881.36
2023-01-10T00:57:56.936Z,97885.76
2023-01-10T01:00:27.204Z,97890.61
2023-01-10T01:02:57.298Z,97894.11
2023-01-10T01:05:26.384Z,97896.39
2023-01-10T01:07:55.469Z,97901.77
2023-01-10T01:10:27.485Z,97903.34
2023-01-10T01:13:05.973Z,97911.57
2023-01-10T01:15:36.001Z,97912.40
2023-01-10T01:18:05.510Z,97919.98
2023-01-10T01:20:35.119Z,97920.72
2023-01-10T01:23:04.635Z,97924.35
2023-01-10T01:25:33.978Z,97930.98
2023-01-10T01:28:03.624Z,97939.33
2023-01-10T01:30:32.335Z,97946.74
2023-01-10T01:33:01.352Z,97949.14
2023-01-10T01:35:30.369Z,97956.38
2023-01-10T01:37:59.594Z,97962.05
2023-01-10T01:40:28.840Z,97966.86
2023-01-10T01:42:57.961Z,97981.17
2023-01-10T01:45:35.951Z,97983.16
2023-01-10T01:48:39.702Z,97990.43
2023-01-10T01:51:16.319Z,97987.64
2023-01-10T01:53:53.312Z,97988.39
2023-01-10T01:56:29.859Z,97992.92
2023-01-10T01:59:10.909Z,97995.38
2023-01-10T02:01:42.569Z,98004.73
2023-01-10T02:04:18.285Z,98009.98
2023-01-10T02:06:50.053Z,98010.73
2023-01-10T02:09:41.840Z,98015.50
2023-01-10T02:12:12.179Z,98022.71
2023-01-10T02:14:42.573Z,98025.73
2023-01-10T02:17:12.507Z,98032.13
2023-01-10T02:19:47.784Z,98033.15
2023-01-10T02:22:44.639Z,98040.95
2023-01-10T02:25:35.432Z,98044.05
2023-01-10T02:28:15.791Z,98047.52
2023-01-10T02:31:02.995Z,98054.20
2023-01-10T02:33:40.107Z,98059.18
2023-01-10T02:36:29.377Z,98065.81
2023-01-10T02:39:22.495Z,98070.37
2023-01-10T02:42:04.955Z,98068.14
2023-01-10T02:44:45.742Z,98072.84
2023-01-10T02:47:15.159Z,98077.67
2023-01-10T02:49:49.117Z,98080.42
2023-01-10T02:52:28.389Z,98077.66
2023-01-10T02:55:04.176Z,98080.17
2023-01-10T02:57:49.089Z,98086.70
2023-01-10T03:00:28.175Z,98091.52
2023-01-10T03:03:02.996Z,98105.10
2023-01-10T03:06:20.614Z,98109.72
2023-01-10T03:08:55.312Z,98117.59
2023-01-10T03:11:41.966Z,98117.90
2023-01-10T03:14:25.056Z,98116.08
2023-01-10T03:17:00.493Z,98115.73
2023-01-10T03:19:35.627Z,98115.33
2023-01-10T03:22:09.453Z,98113.14
2023-01-10T03:24:42.928Z,98116.33
2023-01-10T03:27:28.017Z,98119.51
2023-01-10T03:30:22.668Z,98129.45
2023-01-10T03:32:51.945Z,98133.63
2023-01-10T03:35:23.934Z,98140.86
2023-01-10T03:38:05.131Z,98144.72
2023-01-10T03:40:40.047Z,98146.55
2023-01-10T03:43:41.765Z,98140.71
2023-01-10T03:46:24.781Z,98149.21
2023-01-10T03:48:56.200Z,98158.98
2023-01-10T03:51:28.325Z,98170.59
2023-01-10T03:54:01.690Z,98171.16
2023-01-10T03:56:31.689Z,98179.19
2023-01-10T03:59:01.287Z,98181.50
2023-01-10T04:01:30.502Z,98185.26
2023-01-10T04:03:59.507Z,98185.08
2023-01-10T04:06:28.977Z,98187.10
2023-01-10T04:08:57.813Z,98189.63
2023-01-10T04:11:26.815Z,98193.80
2023-01-10T04:13:55.933Z,98199.08
2023-01-10T04:16:24.997Z,98198.33
2023-01-10T04:18:53.890Z,98202.63
2023-01-10T04:21:23.257Z,98207.94
2023-01-10T04:23:52.327Z,98211.72
2023-01-10T04:26:21.372Z,98211.01
2023-01-10T04:28:50.599Z,98212.34
2023-01-10T04:31:19.756Z,98217.76
2023-01-10T04:33:48.684Z,98218.08
2023-01-10T04:36:17.353Z,98219.21
2023-01-10T04:38:46.405Z,98225.98
2023-01-10T04:41:15.561Z,98232.87
2023-01-10T04:43:44.477Z,98238.35
2023-01-10T04:46:13.301Z,98241.11
2023-01-10T04:48:42.830Z,98245.48
2023-01-10T04:51:12.958Z,98252.98
2023-01-10T04:53:42.836Z,98250.93
2023-01-10T04:56:18.382Z,98250.98
2023-01-10T04:58:48.324Z,98255.30
2023-01-10T05:01:26.198Z,98251.77
2023-01-10T05:03:56.629Z,98255.87
2023-01-10T05:06:25.865Z,98263.46
2023-01-10T05:08:54.648Z,98272.80
2023-01-10T05:11:24.486Z,98278.92
2023-01-10T05:13:53.481Z,98279.25
2023-01-10T05:16:22.276Z,98285.48
2023-01-10T05:18:51.554Z,98291.25
2023-01-10T05:21:20.210Z,98292.45
2023-01-10T05:23:49.687Z,98299.74
2023-01-10T05:26:23.999Z,98306.09
2023-01-10T05:28:52.939Z,98313.11
2023-01-10T05:31:21.781Z,98321.44
2023-01-10T05:33:52.252Z,98328.70
2023-01-10T05:36:21.814Z,98328.94
2023-01-10T05:38:50.782Z,98333.16
2023-01-10T05:41:19.684Z,98339.93
2023-01-10T05:43:48.642Z,98343.75
2023-01-10T05:46:17.173Z,98350.09
2023-01-10T05:48:45.911Z,98355.46
2023-01-10T05:51:15.044Z,98356.99
2023-01-10T05:53:44.022Z,98359.97
2023-01-10T05:56:12.632Z,98360.90
2023-01-10T05:58:41.311Z,98366.17
2023-01-10T06:01:10.417Z,98367.91
2023-01-10T06:03:39.187Z,98374.70
2023-01-10T06:06:08.196Z,98384.44
2023-01-10T06:08:37.464Z,98385.17
2023-01-10T06:11:06.405Z,98390.85
2023-01-10T06:13:35.470Z,98399.14
2023-01-10T06:16:04.505Z,98409.27
2023-01-10T06:18:33.429Z,98411.90
2023-01-10T06:21:02.143Z,98418.16
2023-01-10T06:23:31.581Z,98416.20
2023-01-10T06:26:00.695Z,98417.23
2023-01-10T06:28:29.638Z,98420.86
2023-01-10T06:30:58.511Z,98428.16
2023-01-10T06:33:27.770Z,98432.02
2023-01-10T06:35:56.449Z,98433.17
2023-01-10T06:38:25.756Z,98440.05
2023-01-10T06:40:55.302Z,98450.10
2023-01-10T06:43:26.017Z,98450.06
2023-01-10T06:45:55.737Z,98453.86
2023-01-10T06:48:24.831Z,98458.92
2023-01-10T06:50:54.175Z,98464.64
2023-01-10T06:53:23.235Z,98471.92
2023-01-10T06:55:52.260Z,98479.09
2023-01-10T06:58:21.461Z,98485.02
2023-01-10T07:00:51.357Z,98488.55
2023-01-10T07:03:20.105Z,98496.32
2023-01-10T07:05:49.120Z,98502.64
2023-01-10T07:08:18.465Z,98508.37
2023-01-10T07:10:47.355Z,98512.84
2023-01-10T07:13:16.427Z,98513.21
2023-01-10T07:15:45.260Z,98518.88
2023-01-10T07:18:14.203Z,98514.61
2023-01-10T07:20:43.524Z,98512.69
2023-01-10T07:23:13.466Z,98519.47
2023-01-10T07:25:42.888Z,98519.02
2023-01-10T07:28:11.575Z,98515.64
2023-01-10T07:30:40.463Z,98521.98
2023-01-10T07:33:09.681Z,98529.56
2023-01-10T07:35:40.016Z,98527.50
2023-01-10T07:38:09.648Z,98530.16
2023-01-10T07:40:39.037Z,98541.77
2023-01-10T07:43:08.251Z,98551.78
2023-01-10T07:45:37.516Z,98556.84
2023-01-10T07:48:06.810Z,98556.00
2023-01-10T07:50:37.225Z,98556.92
2023-01-10T07:53:08.609Z,98562.42
2023-01-10T07:55:40.188Z,98562.05
2023-01-10T07:58:09.053Z,98564.76
2023-01-10T08:00:38.020Z,98556.86
2023-01-10T08:03:07.674Z,98557.70
2023-01-10T08:05:37.513Z,98556.48
2023-01-10T08:08:09.442Z,98557.18
2023-01-10T08:10:41.146Z,98557.45
2023-01-10T08:13:18.848Z,98560.06
2023-01-10T08:15:50.795Z,98563.75
2023-01-10T08:18:21.653Z,98566.11
2023-01-10T08:20:54.050Z,98572.23
2023-01-10T08:23:23.765Z,98572.73
2023-01-10T08:25:53.376Z,98571.84
2023-01-10T08:28:23.229Z,98572.67
2023-01-10T08:30:55.972Z,98577.65
2023-01-10T08:33:25.883Z,98580.21
2023-01-10T08:35:55.909Z,98585.90
2023-01-10T08:38:25.935Z,98594.38
2023-01-10T08:40:58.728Z,98599.30
2023-01-10T08:43:28.088Z,98600.30
2023-01-10T08:45:57.560Z,98608.73
2023-01-10T08:48:26.997Z,98614.95
2023-01-10T08:50:56.112Z,98615.80
2023-01-10T08:53:27.573Z,98624.36
2023-01-10T08:55:56.981Z,98624.70
2023-01-10T08:58:27.543Z,98627.51
2023-01-10T09:00:57.969Z,98630.15
2023-01-10T09:03:27.029Z,98631.77
2023-01-10T09:05:55.836Z,98634.50
2023-01-10T09:08:25.604Z,98635.61
2023-01-10T09:10:54.747Z,98638.90
2023-01-10T09:13:23.282Z,98645.40
2023-01-10T09:15:53.466Z,98661.26
2023-01-10T09:18:24.661Z,98660.14
2023-01-10T09:20:55.738Z,98666.13
2023-01-10T09:23:26.480Z,98671.10
2023-01-10T09:25:58.367Z,98675.73
2023-01-10T09:28:28.014Z,98679.33
2023-01-10T09:30:58.809Z,98684.52
2023-01-10T09:33:41.441Z,98684.24
2023-01-10T09:36:16.079Z,98684.83
2023-01-10T09:38:45.547Z,98686.52
2023-01-10T09:41:37.498Z,98685.44
2023-01-10T09:44:31.695Z,98685.06
2023-01-10T09:47:25.213Z,98685.08
2023-01-10T09:50:25.352Z,98688.21
2023-01-10T09:53:04.959Z,98691.09
2023-01-10T09:55:38.422Z,98696.73
2023-01-10T09:58:20.704Z,98699.40
2023-01-10T10:00:57.875Z,98699.49
2023-01-10T10:03:41.356Z,98698.56
2023-01-10T10:06:16.437Z,98703.34
2023-01-10T10:08:48.050Z,98704.27
2023-01-10T10:11:26.941Z,98706.14
2023-01-10T10:14:14.954Z,98703.59
2023-01-10T10:17:01.137Z,98701.08
2023-01-10T10:19:53.271Z,98698.58
2023-01-10T10:22:31.898Z,98698.88
2023-01-10T10:25:33.419Z,98697.39
2023-01-10T10:28:13.476Z,98701.32
2023-01-10T10:31:06.261Z,98704.22
2023-01-10T10:34:02.157Z,98703.05
2023-01-10T10:36:46.064Z,98700.63
2023-01-10T10:39:23.866Z,98703.23
2023-01-10T10:41:56.572Z,98699.94
2023-01-10T10:44:40.611Z,98701.18
2023-01-10T10:47:17.016Z,98709.14
2023-01-10T10:50:17.469Z,98710.14
2023-01-10T10:52:47.572Z,98709.80
2023-01-10T10:55:19.992Z,98710.42
2023-01-10T10:57:59.871Z,98707.48
2023-01-10T11:00:31.665Z,98705.35
2023-01-10T11:03:26.211Z,98707.89
2023-01-10T11:05:56.411Z,98707.60
2023-01-10T11:08:26.285Z,98711.36
2023-01-10T11:10:59.203Z,98714.25
2023-01-10T11:13:44.161Z,98716.90
2023-01-10T11:16:30.332Z,98716.80
2023-01-10T11:19:27.381Z,98715.11
2023-01-10T11:22:07.732Z,98717.39
2023-01-10T11:24:43.172Z,98716.46
2023-01-10T11:27:16.765Z,98721.65
2023-01-10T11:29:51.745Z,98717.85
2023-01-10T11:32:32.619Z,98722.33
2023-01-10T11:35:16.977Z,98726.77
2023-01-10T11:38:03.050Z,98726.79
2023-01-10T11:40:35.382Z,98729.81
2023-01-10T11:43:28.732Z,98730.36
2023-01-10T11:46:03.204Z,98723.60
2023-01-10T11:49:07.299Z,98728.54
2023-01-10T11:51:41.403Z,98730.27
2023-01-10T11:54:31.902Z,98729.91
2023-01-10T11:57:17.456Z,98730.78
2023-01-10T11:59:59.623Z,98725.19
2023-01-10T12:02:34.339Z,98720.59
2023-01-10T12:05:07.486Z,98718.20
2023-01-10T12:07:56.705Z,98719.38
2023-01-10T12:10:28.942Z,98719.11
2023-01-10T12:13:18.325Z,98718.55
2023-01-10T12:15:49.828Z,98726.27
2023-01-10T12:18:20.494Z,98725.81
2023-01-10T12:20:54.842Z,98722.36
2023-01-10T12:23:26.757Z,98720.15
2023-01-10T12:26:10.712Z,98726.05
2023-01-10T12:28:48.717Z,98725.42
2023-01-10T12:31:17.570Z,98724.48
2023-01-10T12:33:52.049Z,98731.70
2023-01-10T12:36:45.582Z,98733.20
2023-01-10T12:39:24.323Z,98731.05
2023-01-10T12:42:28.475Z,98735.39
2023-01-10T12:45:10.825Z,98740.84
2023-01-10T12:47:58.335Z,98741.20
2023-01-10T12:50:34.039Z,98745.16
2023-01-10T12:53:29.659Z,98748.69
2023-01-10T12:56:06.862Z,98749.88
2023-01-10T12:58:39.839Z,98750.29
2023-01-10T13:01:21.028Z,98749.89
2023-01-10T13:03:57.155Z,98747.29
2023-01-10T13:06:39.351Z,98748.59
2023-01-10T13:09:30.327Z,98749.89
2023-01-10T13:12:12.012Z,98748.52
2023-01-10T13:14:49.441Z,98748.91
2023-01-10T13:17:47.617Z,98749.80
2023-01-10T13:20:22.687Z,98751.02
2023-01-10T13:23:01.742Z,98750.52
2023-01-10T13:25:35.360Z,98743.86
2023-01-10T13:28:20.712Z,98748.20
2023-01-10T13:31:01.617Z,98750.05
2023-01-10T13:33:40.697Z,98753.75
2023-01-10T13:36:23.564Z,98754.61
2023-01-10T13:39:01.944Z,98757.13
2023-01-10T13:42:17.701Z,98760.40
2023-01-10T13:45:02.691Z,98764.98
2023-01-10T13:47:41.253Z,98767.05
2023-01-10T13:50:42.554Z,98774.55
2023-01-10T13:53:13.596Z,98781.33
2023-01-10T13:55:54.094Z,98785.96
2023-01-10T13:58:43.996Z,98799.01
2023-01-10T14:01:56.104Z,98806.42
2023-01-10T14:04:32.642Z,98809.42
2023-01-10T14:07:07.832Z,98815.12
2023-01-10T14:09:46.022Z,98819.29
2023-01-10T14:12:27.515Z,98820.68
2023-01-10T14:14:59.893Z,98819.97
2023-01-10T14:17:31.940Z,98821.15
2023-01-10T14:20:23.348Z,98827.65
2023-01-10T14:23:00.624Z,98835.52
2023-01-10T14:25:32.393Z,98831.31
2023-01-10T14:28:02.003Z,98833.74
2023-01-10T14:30:39.012Z,98840.13
2023-01-10T14:33:21.846Z,98837.77
2023-01-10T14:35:55.459Z,98844.58
2023-01-10T14:38:34.750Z,98848.36
2023-01-10T14:41:20.509Z,98852.00
2023-01-10T14:43:59.911Z,98858.40
2023-01-10T14:46:56.703Z,98862.64
2023-01-10T14:49:29.924Z,98859.47
2023-01-10T14:52:22.719Z,98856.27
2023-01-10T14:55:04.253Z,98862.98
2023-01-10T14:57:33.768Z,98865.41
2023-01-10T15:00:07.093Z,98863.19
2023-01-10T15:02:37.890Z,98865.52
2023-01-10T15:05:18.196Z,98869.56
2023-01-10T15:07:47.593Z,98871.39
2023-01-10T15:10:36.098Z,98873.95
2023-01-10T15:13:07.112Z,98882.41
2023-01-10T15:15:39.241Z,98883.99
2023-01-10T15:18:38.170Z,98888.38
2023-01-10T15:21:08.385Z,98890.83
2023-01-10T15:23:40.085Z,98891.92
2023-01-10T15:26:17.553Z,98900.12
2023-01-10T15:29:08.648Z,98898.67
2023-01-10T15:31:39.134Z,98898.89
2023-01-10T15:34:20.678Z,98902.30
2023-01-10T15:36:55.777Z,98900.09
2023-01-10T15:39:32.741Z,98908.91
2023-01-10T15:42:10.934Z,98921.10
2023-01-10T15:44:57.747Z,98926.71
2023-01-10T15:47:41.944Z,98922.92
2023-01-10T15:50:26.688Z,98920.52
2023-01-10T15:53:00.379Z,98924.71
2023-01-10T15:55:52.757Z,98927.75
2023-01-10T15:58:36.758Z,98930.75
2023-01-10T16:01:06.367Z,98941.04
2023-01-10T16:03:39.002Z,98947.27
2023-01-10T16:06:10.500Z,98951.38
2023-01-10T16:08:41.431Z,98951.73
2023-01-10T16:11:40.910Z,98958.02
2023-01-10T16:14:10.333Z,98962.45
2023-01-10T16:16:41.519Z,98968.02
2023-01-10T16:19:13.296Z,98970.12
2023-01-10T16:21:51.413Z,98977.66
2023-01-10T16:24:23.773Z,98981.55
2023-01-10T16:26:53.308Z,98982.25
2023-01-10T16:29:23.478Z,98984.06
2023-01-10T16:31:53.873Z,98984.38
2023-01-10T16:34:24.401Z,98987.38
2023-01-10T16:36:53.703Z,98988.48
2023-01-10T16:39:24.563Z,98992.84
2023-01-10T16:42:12.488Z,98995.49
2023-01-10T16:44:42.152Z,98999.56
2023-01-10T16:47:10.854Z,99004.28
2023-01-10T16:49:42.383Z,99005.46
2023-01-10T16:52:15.444Z,99008.91
2023-01-10T16:54:44.086Z,99009.77
2023-01-10T16:57:15.685Z,99014.28
2023-01-10T16:59:44.816Z,99011.73
2023-01-10T17:02:19.625Z,99011.81
2023-01-10T17:04:49.536Z,99015.52
2023-01-10T17:07:19.057Z,99016.39
2023-01-10T17:09:48.512Z,99019.61
2023-01-10T17:12:21.086Z,99022.23
2023-01-10T17:14:51.032Z,99025.87
2023-01-10T17:17:20.642Z,99025.92
2023-01-10T17:19:49.874Z,99035.90
2023-01-10T17:22:19.373Z,99039.17
2023-01-10T17:24:49.050Z,99042.79
2023-01-10T17:27:18.334Z,99051.21
2023-01-10T17:29:47.566Z,99058.84
2023-01-10T17:32:16.652Z,99062.00
2023-01-10T17:34:45.662Z,99071.05
2023-01-10T17:37:14.950Z,99078.81
2023-01-10T17:39:43.977Z,99079.27
2023-01-10T17:42:13.367Z,99080.39
2023-01-10T17:44:43.035Z,99086.16
2023-01-10T17:47:12.453Z,99091.23
2023-01-10T17:49:43.047Z,99096.85
2023-01-10T17:52:12.922Z,99097.00
2023-01-10T17:54:42.148Z,99104.70
2023-01-10T17:57:12.722Z,99106.48
2023-01-10T17:59:42.549Z,99110.33
2023-01-10T18:02:19.183Z,99115.61
2023-01-10T18:04:49.121Z,99119.79
2023-01-10T18:07:18.734Z,99120.72
2023-01-10T18:09:48.270Z,99120.02
2023-01-10T18:12:17.257Z,99124.59
2023-01-10T18:14:47.368Z,99130.33
2023-01-10T18:17:18.387Z,99128.84
2023-01-10T18:19:47.820Z,99126.34
2023-01-10T18:22:35.117Z,99134.89
2023-01-10T18:25:04.884Z,99134.79
2023-01-10T18:27:34.235Z,99139.85
2023-01-10T18:30:04.717Z,99138.64
2023-01-10T18:32:33.648Z,99141.84
2023-01-10T18:35:02.481Z,99142.12
2023-01-10T18:37:31.692Z,99144.94
2023-01-10T18:40:01.715Z,99141.30
2023-01-10T18:42:32.091Z,99143.83
2023-01-10T18:45:02.189Z,99145.61
2023-01-10T18:47:31.200Z,99151.58
2023-01-10T18:50:00.381Z,99159.02
2023-01-10T18:52:29.477Z,99160.30
2023-01-10T18:55:00.913Z,99162.61
2023-01-10T18:57:33.102Z,99165.52
2023-01-10T19:00:02.420Z,99166.08
2023-01-10T19:02:31.937Z,99170.70
2023-01-10T19:05:01.602Z,99173.30
2023-01-10T19:07:31.111Z,99173.40
2023-01-10T19:10:00.418Z,99174.77
2023-01-10T19:12:29.183Z,99172.88
2023-01-10T19:14:58.453Z,99175.17
2023-01-10T19:17:29.650Z,99180.77
2023-01-10T19:19:59.328Z,99181.94
2023-01-10T19:22:28.779Z,99185.45
2023-01-10T19:24:58.031Z,99185.08
2023-01-10T19:27:28.374Z,99187.61
2023-01-10T19:29:57.789Z,99191.36
2023-01-10T19:32:28.240Z,99192.50
2023-01-10T19:34:57.888Z,99192.46
2023-01-10T19:37:27.382Z,99188.40
2023-01-10T19:39:56.448Z,99193.33
2023-01-10T19:42:26.643Z,99188.03
2023-01-10T19:44:55.973Z,99192.98
2023-01-10T19:47:25.177Z,99194.66
2023-01-10T19:49:56.061Z,99197.80
2023-01-10T19:52:26.394Z,99197.17
2023-01-10T19:54:57.748Z,99197.09
2023-01-10T19:57:28.833Z,99200.80
2023-01-10T20:00:01.094Z,99200.42
2023-01-10T20:02:30.976Z,99200.13
2023-01-10T20:05:03.851Z,99207.48
2023-01-10T20:07:34.000Z,99210.03
2023-01-10T20:10:03.419Z,99212.85
2023-01-10T20:12:33.641Z,99218.34
2023-01-10T20:15:03.500Z,99222.55
2023-01-10T20:17:35.383Z,99228.38
2023-01-10T20:20:06.362Z,99229.20
2023-01-10T20:22:35.796Z,99234.94
2023-01-10T20:25:05.912Z,99234.20
2023-01-10T20:27:37.308Z,99232.61
2023-01-10T20:30:09.107Z,99232.02
2023-01-10T20:32:39.794Z,99230.55
2023-01-10T20:35:11.721Z,99234.59
2023-01-10T20:37:42.342Z,99232.46
2023-01-10T20:40:14.464Z,99234.16
2023-01-10T20:42:44.989Z,99236.66
2023-01-10T20:45:14.596Z,99236.45
2023-01-10T20:47:44.049Z,99230.84
2023-01-10T20:50:14.037Z,99235.82
2023-01-10T20:52:43.347Z,99235.45
2023-01-10T20:55:13.244Z,99239.55
2023-01-10T20:57:43.446Z,99240.81
2023-01-10T21:00:13.786Z,99245.61
2023-01-10T21:02:44.710Z,99244.52
2023-01-10T21:05:14.618Z,99248.02
2023-01-10T21:07:43.504Z,99249.94
2023-01-10T21:10:12.604Z,99253.52
2023-01-10T21:12:41.946Z,99248.11
2023-01-10T21:15:12.588Z,99253.34
2023-01-10T21:17:43.675Z,99251.66
2023-01-10T21:20:14.090Z,99253.34
2023-01-10T21:22:44.759Z,99254.73
2023-01-10T21:25:15.092Z,99258.05
2023-01-10T21:27:44.410Z,99259.40
2023-01-10T21:30:15.669Z,99255.29
2023-01-10T21:32:45.754Z,99254.86
2023-01-10T21:35:15.205Z,99256.38
2023-01-10T21:37:46.279Z,99259.28
2023-01-10T21:40:17.619Z,99263.41
2023-01-10T21:42:48.045Z,99264.79
2023-01-10T21:45:19.498Z,99268.21
2023-01-10T21:47:52.933Z,99271.83
2023-01-10T21:50:22.620Z,99272.07
2023-01-10T21:52:52.496Z,99273.52
2023-01-10T21:55:21.848Z,99272.30
2023-01-10T21:57:51.256Z,99279.69
2023-01-10T22:00:20.867Z,99283.31
2023-01-10T22:02:50.425Z,99281.99
2023-01-10T22:05:20.466Z,99285.31
2023-01-10T22:07:49.659Z,99287.52
2023-01-10T22:10:18.960Z,99289.21
2023-01-10T22:12:48.266Z,99291.06
2023-01-10T22:15:17.472Z,99290.67
2023-01-10T22:17:48.647Z,99291.63
2023-01-10T22:20:17.789Z,99297.27
2023-01-10T22:22:47.118Z,99299.50
2023-01-10T22:25:16.122Z,99301.44
2023-01-10T22:27:45.505Z,99304.68
2023-01-10T22:30:14.245Z,99307.12
2023-01-10T22:32:43.131Z,99306.98
2023-01-10T22:35:14.976Z,99308.73
2023-01-10T22:37:44.323Z,99305.55
2023-01-10T22:40:14.462Z,99306.64
2023-01-10T22:42:44.427Z,99308.12
2023-01-10T22:45:13.773Z,99309.18
2023-01-10T22:47:42.860Z,99307.85
2023-01-10T22:50:11.843Z,99310.59
2023-01-10T22:52:40.537Z,99309.30
2023-01-10T22:55:10.002Z,99309.80
2023-01-10T22:57:46.759Z,99309.05
2023-01-10T23:00:17.644Z,99308.40
2023-01-10T23:02:47.307Z,99304.70
2023-01-10T23:05:16.323Z,99306.19
2023-01-10T23:07:45.702Z,99305.19
2023-01-10T23:10:28.845Z,99304.37
2023-01-10T23:13:00.393Z,99305.98
2023-01-10T23:15:29.949Z,99300.98
2023-01-10T23:30:53.515Z,99314.86
2023-01-10T23:33:22.719Z,99314.25
2023-01-10T23:35:51.578Z,99310.98
2023-01-10T23:38:20.390Z,99306.45
2023-01-10T23:40:49.108Z,99302.97
2023-01-10T23:43:18.056Z,99304.40
2023-01-10T23:45:47.509Z,99304.59
2023-01-10T23:48:17.233Z,99297.45
2023-01-10T23:50:51.446Z,99301.21
2023-01-10T23:53:20.666Z,99301.73
2023-01-10T23:55:49.360Z,99304.30
2023-01-10T23:58:18.457Z,99300.77
